createdAt,value
2019-05-12T00:01:34.342Z,2.97
2019-05-12T00:04:03.783Z,2.40
2019-05-12T00:06:33.153Z,2.90
2019-05-12T00:09:02.552Z,3.43
2019-05-12T00:11:31.753Z,2.60
2019-05-12T00:14:01.033Z,2.47
2019-05-12T00:16:30.237Z,3.03
2019-05-12T00:18:59.445Z,2.97
2019-05-12T00:21:28.706Z,2.63
2019-05-12T00:24:13.029Z,2.63
2019-05-12T00:26:43.355Z,3.13
2019-05-12T00:29:12.760Z,2.80
2019-05-12T00:31:42.051Z,2.60
2019-05-12T00:34:19.283Z,2.50
2019-05-12T00:36:48.664Z,2.77
2019-05-12T00:39:19.050Z,2.33
2019-05-12T00:41:51.782Z,1.73
2019-05-12T00:44:21.070Z,2.00
2019-05-12T00:46:50.255Z,2.00
2019-05-12T00:49:19.553Z,2.40
2019-05-12T00:51:48.717Z,2.43
2019-05-12T00:54:18.086Z,2.03
2019-05-12T00:56:48.185Z,2.10
2019-05-12T00:59:19.087Z,3.80
2019-05-12T01:01:48.425Z,2.00
2019-05-12T01:04:17.775Z,2.20
2019-05-12T01:06:51.894Z,2.30
2019-05-12T01:09:21.208Z,2.53
2019-05-12T01:11:50.516Z,1.90
2019-05-12T01:14:19.694Z,2.73
2019-05-12T01:16:48.881Z,2.37
2019-05-12T01:19:18.691Z,2.67
2019-05-12T01:21:48.234Z,3.00
2019-05-12T01:24:18.725Z,2.07
2019-05-12T01:26:48.146Z,3.87
2019-05-12T01:29:17.776Z,2.00
2019-05-12T01:31:58.480Z,2.53
2019-05-12T01:34:38.275Z,2.20
2019-05-12T01:37:27.809Z,2.13
2019-05-12T01:39:59.712Z,1.90
2019-05-12T01:42:28.648Z,2.57
2019-05-12T01:44:58.528Z,2.07
2019-05-12T01:47:29.063Z,2.67
2019-05-12T01:50:18.015Z,2.93
2019-05-12T01:52:47.824Z,2.53
2019-05-12T01:55:18.600Z,2.37
2019-05-12T01:57:48.571Z,2.33
2019-05-12T02:00:18.362Z,2.40
2019-05-12T02:02:48.113Z,2.20
2019-05-12T02:05:18.320Z,2.37
2019-05-12T02:07:58.404Z,2.40
2019-05-12T02:10:28.597Z,2.30
2019-05-12T02:12:59.372Z,0.50
2019-05-12T02:15:28.998Z,2.30
2019-05-12T02:17:59.113Z,2.07
2019-05-12T02:20:29.005Z,2.00
2019-05-12T02:22:58.683Z,2.47
2019-05-12T02:25:28.657Z,2.10
2019-05-12T02:27:58.658Z,2.20
2019-05-12T02:30:30.220Z,2.53
2019-05-12T02:32:59.806Z,2.83
2019-05-12T02:35:29.265Z,3.23
2019-05-12T02:37:58.524Z,3.20
2019-05-12T02:40:27.699Z,2.20
2019-05-12T02:42:57.015Z,2.90
2019-05-12T02:45:26.317Z,2.67
2019-05-12T02:47:55.654Z,3.37
2019-05-12T02:50:37.350Z,3.53
2019-05-12T02:53:07.606Z,3.60
2019-05-12T02:55:38.049Z,2.63
2019-05-12T02:58:08.402Z,3.10
2019-05-12T03:00:46.229Z,3.90
2019-05-12T03:03:17.318Z,2.43
2019-05-12T03:05:46.958Z,3.20
2019-05-12T03:08:17.032Z,3.50
2019-05-12T03:10:48.155Z,3.40
2019-05-12T03:13:17.405Z,3.50
2019-05-12T03:15:46.651Z,3.57
2019-05-12T03:18:15.997Z,3.73
2019-05-12T03:20:45.677Z,3.30
2019-05-12T03:23:18.971Z,3.90
2019-05-12T03:25:46.079Z,4.53
2019-05-12T03:28:16.108Z,4.10
2019-05-12T03:30:48.487Z,3.47
2019-05-12T03:33:19.574Z,3.33
2019-05-12T03:35:52.829Z,3.40
2019-05-12T03:38:18.535Z,3.60
2019-05-12T03:40:47.792Z,2.83
2019-05-12T03:43:17.297Z,3.40
2019-05-12T03:45:46.676Z,3.60
2019-05-12T03:48:16.110Z,3.50
2019-05-12T03:50:46.272Z,3.83
2019-05-12T03:53:16.092Z,3.90
2019-05-12T03:55:46.833Z,3.90
2019-05-12T03:58:25.606Z,3.10
2019-05-12T04:00:55.359Z,3.23
2019-05-12T04:03:24.905Z,2.83
2019-05-12T04:05:55.409Z,3.50
2019-05-12T04:08:24.866Z,2.80
2019-05-12T04:10:54.807Z,3.03
2019-05-12T04:13:26.546Z,2.53
2019-05-12T04:15:55.812Z,2.80
2019-05-12T04:18:25.185Z,2.97
2019-05-12T04:20:54.659Z,2.87
2019-05-12T04:23:24.729Z,2.57
2019-05-12T04:26:07.489Z,3.07
2019-05-12T04:28:25.363Z,2.30
2019-05-12T04:30:54.683Z,3.20
2019-05-12T04:33:25.741Z,2.80
2019-05-12T04:35:55.489Z,2.80
2019-05-12T04:38:25.109Z,2.53
2019-05-12T04:40:55.260Z,2.93
2019-05-12T04:43:25.358Z,3.90
2019-05-12T04:45:55.121Z,2.77
2019-05-12T04:48:25.844Z,3.00
2019-05-12T04:50:55.410Z,3.17
2019-05-12T04:53:25.311Z,2.77
2019-05-12T04:56:07.525Z,2.60
2019-05-12T04:58:27.328Z,3.17
2019-05-12T05:00:56.533Z,2.27
2019-05-12T05:03:25.785Z,3.17
2019-05-12T05:05:55.135Z,3.03
2019-05-12T05:08:24.737Z,2.63
2019-05-12T05:10:54.833Z,2.87
2019-05-12T05:13:24.714Z,2.63
2019-05-12T05:15:54.861Z,2.87
2019-05-12T05:18:24.419Z,3.30
2019-05-12T05:20:54.245Z,3.30
2019-05-12T05:23:24.123Z,3.53
2019-05-12T05:25:53.931Z,2.90
2019-05-12T05:28:23.726Z,2.90
2019-05-12T05:30:53.535Z,3.90
2019-05-12T05:33:26.095Z,3.67
2019-05-12T05:35:58.217Z,4.00
2019-05-12T05:38:27.446Z,3.10
2019-05-12T05:40:59.781Z,3.40
2019-05-12T05:43:27.685Z,2.80
2019-05-12T05:46:02.459Z,2.90
2019-05-12T05:48:27.857Z,2.90
2019-05-12T05:50:59.877Z,2.60
2019-05-12T05:53:28.135Z,2.60
2019-05-12T05:56:00.204Z,2.60
2019-05-12T05:58:28.357Z,3.03
2019-05-12T06:01:03.878Z,2.80
2019-05-12T06:03:29.659Z,3.20
2019-05-12T06:06:01.407Z,3.40
2019-05-12T06:08:29.895Z,2.63
2019-05-12T06:10:59.175Z,2.80
2019-05-12T06:13:31.757Z,2.57
2019-05-12T06:16:01.467Z,2.73
2019-05-12T06:18:30.507Z,3.20
2019-05-12T06:20:59.790Z,3.53
2019-05-12T06:23:34.007Z,2.93
2019-05-12T06:26:00.072Z,3.20
2019-05-12T06:28:31.131Z,4.70
2019-05-12T06:31:00.307Z,4.73
2019-05-12T06:33:31.561Z,5.80
2019-05-12T06:36:00.435Z,4.67
2019-05-12T06:38:30.938Z,4.53
2019-05-12T06:41:00.913Z,5.20
2019-05-12T06:43:35.017Z,4.00
2019-05-12T06:46:03.515Z,3.90
2019-05-12T06:48:33.232Z,4.13
2019-05-12T06:51:04.216Z,4.30
2019-05-12T06:54:11.794Z,4.20
2019-05-12T06:56:36.574Z,4.60
2019-05-12T06:59:10.358Z,4.85
2019-05-12T07:01:44.983Z,4.13
2019-05-12T07:04:27.746Z,5.73
2019-05-12T07:07:14.132Z,5.33
2019-05-12T07:09:50.971Z,4.50
2019-05-12T07:12:10.408Z,4.70
2019-05-12T07:14:48.982Z,5.17
2019-05-12T07:17:44.321Z,5.10
2019-05-12T07:20:14.753Z,4.97
2019-05-12T07:22:48.353Z,4.23
2019-05-12T07:25:15.708Z,4.17
2019-05-12T07:28:00.778Z,4.40
2019-05-12T07:30:31.738Z,6.50
2019-05-12T07:33:01.374Z,5.23
2019-05-12T07:35:33.675Z,4.20
2019-05-12T07:38:05.126Z,3.83
2019-05-12T07:40:45.654Z,5.63
2019-05-12T07:43:33.783Z,3.33
2019-05-12T07:46:07.187Z,4.17
2019-05-12T07:48:40.331Z,4.23
2019-05-12T07:51:09.575Z,4.07
2019-05-12T07:53:55.169Z,4.90
2019-05-12T07:56:26.037Z,4.30
2019-05-12T07:58:56.930Z,3.87
2019-05-12T08:01:24.420Z,4.00
2019-05-12T08:03:57.316Z,4.50
2019-05-12T08:06:26.323Z,4.50
2019-05-12T08:08:59.038Z,3.93
2019-05-12T08:11:28.881Z,3.60
2019-05-12T08:13:58.755Z,4.17
2019-05-12T08:16:32.203Z,3.27
2019-05-12T08:19:03.868Z,5.47
2019-05-12T08:21:34.812Z,4.33
2019-05-12T08:24:03.804Z,4.10
2019-05-12T08:26:35.519Z,4.77
2019-05-12T08:29:04.891Z,3.93
2019-05-12T08:31:40.662Z,4.20
2019-05-12T08:34:09.755Z,3.83
2019-05-12T08:36:39.245Z,4.50
2019-05-12T08:39:11.812Z,4.50
2019-05-12T08:41:40.255Z,3.97
2019-05-12T08:44:09.839Z,4.20
2019-05-12T08:46:43.133Z,3.87
2019-05-12T08:49:14.395Z,4.00
2019-05-12T08:51:49.725Z,3.80
2019-05-12T08:54:16.143Z,4.13
2019-05-12T08:56:50.946Z,3.93
2019-05-12T08:59:44.198Z,3.63
2019-05-12T09:02:13.919Z,4.40
2019-05-12T09:04:51.384Z,3.67
2019-05-12T09:07:18.235Z,4.17
2019-05-12T09:09:47.753Z,3.70
2019-05-12T09:12:17.010Z,4.00
2019-05-12T09:14:46.489Z,3.23
2019-05-12T09:17:15.904Z,3.07
2019-05-12T09:19:45.225Z,3.93
2019-05-12T09:22:18.458Z,3.03
2019-05-12T09:24:45.517Z,2.73
2019-05-12T09:27:14.872Z,3.00
2019-05-12T09:29:44.588Z,2.87
2019-05-12T09:32:14.629Z,3.13
2019-05-12T09:34:53.122Z,2.70
2019-05-12T09:37:18.447Z,3.13
2019-05-12T09:39:50.814Z,2.90
2019-05-12T09:42:19.163Z,3.70
2019-05-12T09:44:51.430Z,2.63
2019-05-12T09:47:26.724Z,2.97
2019-05-12T09:49:53.549Z,2.93
2019-05-12T09:52:26.991Z,3.33
2019-05-12T09:54:54.963Z,3.00
2019-05-12T09:57:24.331Z,2.90
2019-05-12T09:59:58.270Z,3.00
2019-05-12T10:02:24.633Z,3.43
2019-05-12T10:04:56.451Z,3.00
2019-05-12T10:07:25.048Z,2.60
2019-05-12T10:09:58.929Z,3.17
2019-05-12T10:12:29.800Z,3.13
2019-05-12T10:15:00.687Z,2.43
2019-05-12T10:17:30.511Z,3.00
2019-05-12T10:20:24.088Z,2.67
2019-05-12T10:23:04.531Z,2.77
2019-05-12T10:25:34.252Z,3.13
2019-05-12T10:28:11.377Z,2.60
2019-05-12T10:30:35.257Z,2.50
2019-05-12T10:33:04.670Z,1.97
2019-05-12T10:35:54.180Z,2.43
2019-05-12T10:41:00.958Z,2.23
2019-05-12T10:43:36.301Z,2.37
2019-05-12T10:46:07.258Z,2.23
2019-05-12T10:48:37.883Z,3.03
2019-05-12T10:51:07.621Z,2.30
2019-05-12T10:53:37.471Z,2.27
2019-05-12T10:56:12.090Z,2.20
2019-05-12T10:58:43.966Z,2.50
2019-05-12T11:01:13.840Z,2.37
2019-05-12T11:03:50.843Z,2.07
2019-05-12T11:06:14.896Z,2.50
2019-05-12T11:08:47.428Z,2.03
2019-05-12T11:11:16.478Z,2.43
2019-05-12T11:13:49.933Z,2.17
2019-05-12T11:16:17.015Z,2.20
2019-05-12T11:18:48.080Z,2.10
2019-05-12T11:21:20.505Z,2.33
2019-05-12T11:23:50.078Z,2.20
2019-05-12T11:26:20.133Z,3.20
2019-05-12T11:28:49.522Z,4.83
2019-05-12T11:31:18.861Z,2.30
2019-05-12T11:33:48.309Z,3.40
2019-05-12T11:36:17.690Z,3.87
2019-05-12T11:38:49.502Z,3.10
2019-05-12T11:41:20.228Z,4.30
2019-05-12T11:43:52.077Z,2.03
2019-05-12T11:46:20.856Z,1.63
2019-05-12T11:48:50.504Z,3.00
2019-05-12T11:51:24.068Z,2.83
2019-05-12T11:53:51.242Z,2.43
2019-05-12T11:56:20.580Z,2.70
2019-05-12T11:58:51.455Z,3.60
2019-05-12T12:01:24.328Z,3.97
2019-05-12T12:03:54.683Z,3.97
2019-05-12T12:06:25.614Z,4.37
2019-05-12T12:08:55.122Z,4.43
2019-05-12T12:11:27.846Z,2.40
2019-05-12T12:14:00.312Z,4.07
2019-05-12T12:16:26.706Z,1.93
2019-05-12T12:19:02.745Z,4.00
2019-05-12T12:21:35.175Z,2.87
2019-05-12T12:24:04.942Z,2.00
2019-05-12T12:26:37.096Z,3.23
2019-05-12T12:29:05.488Z,2.57
2019-05-12T12:31:54.399Z,1.80
2019-05-12T12:34:29.837Z,1.73
2019-05-12T12:36:54.901Z,2.40
2019-05-12T12:39:24.246Z,2.10
2019-05-12T12:41:59.684Z,1.97
2019-05-12T12:44:24.831Z,2.03
2019-05-12T12:46:59.912Z,1.77
2019-05-12T12:49:25.485Z,2.30
2019-05-12T12:51:56.578Z,2.20
2019-05-12T12:54:25.970Z,1.80
2019-05-12T12:57:00.256Z,2.00
2019-05-12T12:59:26.519Z,2.10
2019-05-12T13:01:59.217Z,1.73
2019-05-12T13:04:28.839Z,1.80
2019-05-12T13:06:58.289Z,1.87
2019-05-12T13:09:29.455Z,2.43
2019-05-12T13:11:58.828Z,1.93
2019-05-12T13:14:28.538Z,1.80
2019-05-12T13:16:59.259Z,1.80
2019-05-12T13:19:28.552Z,1.90
2019-05-12T13:21:57.862Z,2.10
2019-05-12T13:24:28.302Z,2.00
2019-05-12T13:26:57.710Z,1.60
2019-05-12T13:29:34.492Z,1.53
2019-05-12T13:31:58.152Z,1.60
2019-05-12T13:34:28.710Z,1.70
2019-05-12T13:36:59.300Z,1.43
2019-05-12T13:39:28.640Z,1.60
2019-05-12T13:42:00.202Z,1.97
2019-05-12T13:44:30.384Z,1.90
2019-05-12T13:46:59.986Z,2.00
2019-05-12T13:49:30.128Z,2.20
2019-05-12T13:52:01.027Z,1.30
2019-05-12T13:54:30.448Z,1.30
2019-05-12T13:57:03.702Z,1.70
2019-05-12T13:59:30.788Z,1.37
2019-05-12T14:02:00.022Z,1.57
2019-05-12T14:04:29.512Z,1.70
2019-05-12T14:07:00.598Z,1.27
2019-05-12T14:09:29.949Z,1.60
2019-05-12T14:11:59.325Z,1.60
2019-05-12T14:14:28.773Z,1.47
2019-05-12T14:17:00.723Z,1.50
2019-05-12T14:19:35.664Z,1.50
2019-05-12T14:22:04.103Z,1.67
2019-05-12T14:24:41.834Z,1.60
2019-05-12T14:27:05.477Z,1.60
2019-05-12T14:29:36.713Z,1.60
2019-05-12T14:32:12.322Z,1.50
2019-05-12T14:34:43.353Z,1.60
2019-05-12T14:37:17.547Z,1.63
2019-05-12T14:39:50.244Z,1.63
2019-05-12T14:42:18.606Z,1.57
2019-05-12T14:44:50.227Z,1.40
2019-05-12T14:47:27.954Z,1.60
2019-05-12T14:49:54.989Z,1.70
2019-05-12T14:52:24.533Z,1.60
2019-05-12T14:54:54.252Z,1.87
2019-05-12T14:57:24.352Z,1.97
2019-05-12T14:59:55.169Z,1.77
2019-05-12T15:02:28.358Z,2.00
2019-05-12T15:05:00.191Z,1.90
2019-05-12T15:07:27.630Z,1.50
2019-05-12T15:10:02.395Z,1.80
2019-05-12T15:12:28.622Z,1.70
2019-05-12T15:15:00.084Z,1.93
2019-05-12T15:17:30.821Z,1.40
2019-05-12T15:20:06.503Z,1.60
2019-05-12T15:22:33.173Z,1.67
2019-05-12T15:25:05.298Z,1.60
2019-05-12T15:27:41.977Z,1.40
2019-05-12T15:30:18.919Z,1.70
2019-05-12T15:32:37.068Z,1.73
2019-05-12T15:35:07.256Z,1.77
2019-05-12T15:37:38.967Z,1.80
2019-05-12T15:40:10.959Z,1.60
2019-05-12T15:42:40.114Z,1.50
2019-05-12T15:45:16.706Z,1.50
2019-05-12T15:47:46.847Z,1.93
2019-05-12T15:50:16.746Z,1.83
2019-05-12T15:52:48.773Z,1.67
2019-05-12T15:55:18.680Z,1.90
2019-05-12T15:57:49.642Z,1.93
2019-05-12T16:00:19.516Z,1.70
2019-05-12T16:02:49.030Z,1.60
2019-05-12T16:05:20.232Z,1.50
2019-05-12T16:07:50.439Z,2.00
2019-05-12T16:10:23.506Z,1.67
2019-05-12T16:12:52.453Z,1.50
2019-05-12T16:15:22.306Z,1.60
2019-05-12T16:17:54.088Z,1.53
2019-05-12T16:20:23.837Z,1.50
2019-05-12T16:22:53.340Z,1.73
2019-05-12T16:25:28.890Z,1.90
2019-05-12T16:27:56.262Z,1.90
2019-05-12T16:30:27.133Z,2.73
2019-05-12T16:32:57.347Z,1.60
2019-05-12T16:35:31.822Z,1.67
2019-05-12T16:38:05.871Z,2.03
2019-05-12T16:40:34.284Z,2.37
2019-05-12T16:43:03.960Z,1.70
2019-05-12T16:45:34.084Z,2.00
2019-05-12T16:48:05.535Z,1.47
2019-05-12T16:50:34.691Z,1.53
2019-05-12T16:53:04.017Z,1.93
2019-05-12T16:55:44.722Z,1.60
2019-05-12T16:58:04.959Z,2.00
2019-05-12T17:00:39.685Z,1.90
2019-05-12T17:03:05.976Z,1.90
2019-05-12T17:05:35.545Z,1.73
2019-05-12T17:08:05.133Z,1.80
2019-05-12T17:10:34.791Z,1.90
2019-05-12T17:13:07.524Z,1.60
2019-05-12T17:15:35.289Z,1.57
2019-05-12T17:18:04.616Z,1.50
2019-05-12T17:20:35.291Z,2.43
2019-05-12T17:23:04.480Z,1.70
2019-05-12T17:25:36.149Z,1.60
2019-05-12T17:28:05.732Z,1.60
2019-05-12T17:30:35.161Z,1.90
2019-05-12T17:33:05.326Z,1.67
2019-05-12T17:35:35.273Z,1.60
2019-05-12T17:38:04.838Z,1.80
2019-05-12T17:40:34.200Z,2.00
2019-05-12T17:43:11.566Z,1.60
2019-05-12T17:45:35.684Z,1.53
2019-05-12T17:48:07.559Z,1.87
2019-05-12T17:50:40.357Z,1.73
2019-05-12T17:53:06.927Z,1.70
2019-05-12T17:55:42.576Z,2.23
2019-05-12T17:58:17.395Z,1.80
2019-05-12T18:00:51.527Z,1.80
2019-05-12T18:03:22.103Z,2.13
2019-05-12T18:05:50.484Z,1.43
2019-05-12T18:08:24.241Z,2.53
2019-05-12T18:10:51.016Z,1.60
2019-05-12T18:13:25.201Z,1.93
2019-05-12T18:15:51.345Z,1.70
2019-05-12T18:18:24.282Z,1.60
2019-05-12T18:20:51.873Z,1.73
2019-05-12T18:23:26.227Z,1.70
2019-05-12T18:25:53.671Z,1.77
2019-05-12T18:28:27.552Z,1.60
2019-05-12T18:30:54.158Z,1.40
2019-05-12T18:33:33.229Z,1.90
2019-05-12T18:35:54.617Z,1.70
2019-05-12T18:38:26.499Z,1.80
2019-05-12T18:40:55.077Z,1.97
2019-05-12T18:43:24.436Z,1.50
2019-05-12T18:45:56.684Z,1.80
2019-05-12T18:48:25.462Z,1.73
2019-05-12T18:50:54.889Z,1.80
2019-05-12T18:53:31.305Z,1.70
2019-05-12T18:55:55.205Z,1.87
2019-05-12T18:58:30.610Z,1.90
2019-05-12T19:00:56.641Z,2.60
2019-05-12T19:03:25.981Z,1.80
2019-05-12T19:05:58.116Z,1.80
2019-05-12T19:08:26.380Z,1.70
2019-05-12T19:10:55.727Z,1.97
2019-05-12T19:13:25.035Z,2.10
2019-05-12T19:16:02.443Z,1.70
2019-05-12T19:18:32.338Z,1.50
2019-05-12T19:20:57.106Z,1.37
2019-05-12T19:23:34.707Z,1.37
2019-05-12T19:25:57.567Z,1.80
2019-05-12T19:28:34.263Z,1.87
2019-05-12T19:31:09.861Z,1.50
2019-05-12T19:33:43.946Z,1.73
2019-05-12T19:36:13.598Z,1.83
2019-05-12T19:38:44.167Z,1.50
2019-05-12T19:41:15.211Z,1.60
2019-05-12T19:43:49.535Z,1.50
2019-05-12T19:46:20.750Z,1.40
2019-05-12T19:48:51.155Z,1.37
2019-05-12T19:51:28.011Z,1.40
2019-05-12T19:53:55.744Z,1.63
2019-05-12T19:56:34.541Z,1.43
2019-05-12T19:58:59.672Z,1.40
2019-05-12T20:01:32.418Z,1.23
2019-05-12T20:04:10.444Z,1.37
2019-05-12T20:06:43.833Z,1.30
2019-05-12T20:09:14.621Z,1.30
2019-05-12T20:11:47.402Z,1.47
2019-05-12T20:14:21.333Z,1.60
2019-05-12T20:17:29.612Z,1.50
2019-05-12T20:19:59.729Z,1.20
2019-05-12T20:22:29.131Z,1.50
2019-05-12T20:24:58.690Z,1.83
2019-05-12T20:27:30.231Z,1.40
2019-05-12T20:30:07.198Z,1.40
2019-05-12T20:32:34.425Z,1.33
2019-05-12T20:35:04.347Z,1.37
2019-05-12T20:37:33.826Z,1.60
2019-05-12T20:40:05.452Z,2.83
2019-05-12T20:42:42.289Z,1.13
2019-05-12T20:45:09.365Z,1.60
2019-05-12T20:47:39.300Z,1.40
2019-05-12T20:50:09.788Z,2.00
2019-05-12T20:52:46.249Z,1.60
2019-05-12T20:55:11.205Z,1.40
2019-05-12T20:57:58.147Z,1.70
2019-05-12T21:00:27.787Z,1.80
2019-05-12T21:02:57.140Z,1.77
2019-05-12T21:05:26.385Z,1.83
2019-05-12T21:08:01.677Z,1.37
2019-05-12T21:10:29.816Z,1.97
2019-05-12T21:12:58.178Z,1.70
2019-05-12T21:15:36.009Z,2.07
2019-05-12T21:18:04.438Z,1.40
2019-05-12T21:20:29.628Z,1.77
2019-05-12T21:22:58.975Z,1.50
2019-05-12T21:25:28.188Z,1.50
2019-05-12T21:28:02.402Z,1.30
2019-05-12T21:30:28.534Z,1.33
2019-05-12T21:33:01.281Z,1.20
2019-05-12T21:35:32.036Z,1.37
2019-05-12T21:37:59.883Z,1.30
2019-05-12T21:40:30.626Z,1.40
2019-05-12T21:43:00.120Z,1.20
2019-05-12T21:45:31.082Z,1.37
2019-05-12T21:48:00.489Z,1.30
2019-05-12T21:50:37.941Z,1.43
2019-05-12T21:53:00.706Z,1.40
2019-05-12T21:55:29.956Z,1.20
2019-05-12T21:58:01.546Z,1.30
2019-05-12T22:00:34.982Z,1.60
2019-05-12T22:03:08.167Z,1.67
2019-05-12T22:05:50.557Z,1.37
2019-05-12T22:08:17.650Z,1.37
2019-05-12T22:10:39.358Z,1.40
2019-05-12T22:13:14.419Z,1.50
2019-05-12T22:15:39.737Z,2.10
2019-05-12T22:18:08.974Z,1.30
2019-05-12T22:20:38.260Z,1.40
2019-05-12T22:23:11.939Z,1.40
2019-05-12T22:25:38.580Z,2.00
2019-05-12T22:28:10.018Z,1.30
2019-05-12T22:30:38.805Z,1.27
2019-05-12T22:33:10.604Z,1.27
2019-05-12T22:35:39.974Z,1.50
2019-05-12T22:38:15.798Z,1.20
2019-05-12T22:40:40.507Z,1.27
2019-05-12T22:43:09.775Z,1.40
2019-05-12T22:45:44.983Z,1.80
2019-05-12T22:48:10.045Z,1.40
2019-05-12T22:50:40.459Z,1.43
2019-05-12T22:53:09.653Z,1.60
2019-05-12T22:55:38.914Z,1.77
2019-05-12T22:58:10.561Z,1.40
2019-05-12T23:00:39.084Z,1.50
2019-05-12T23:03:11.771Z,1.40
2019-05-12T23:05:39.980Z,1.50
2019-05-12T23:08:09.275Z,1.27
2019-05-12T23:10:41.564Z,1.27
2019-05-12T23:13:09.901Z,1.67
2019-05-12T23:15:45.183Z,1.40
2019-05-12T23:18:10.095Z,1.60
2019-05-12T23:20:39.493Z,1.40
2019-05-12T23:23:13.878Z,1.50
2019-05-12T23:25:39.947Z,1.23
2019-05-12T23:28:10.741Z,1.30
2019-05-12T23:30:43.854Z,1.50
2019-05-12T23:33:11.103Z,1.30
2019-05-12T23:35:40.505Z,1.80
2019-05-12T23:38:10.624Z,1.67
2019-05-12T23:40:43.254Z,1.47
2019-05-12T23:43:14.458Z,1.50
2019-05-12T23:45:44.458Z,1.63
2019-05-12T23:48:14.354Z,1.70
2019-05-12T23:50:45.178Z,1.23
2019-05-12T23:53:14.454Z,1.47
2019-05-12T23:55:43.990Z,1.50
2019-05-12T23:58:14.494Z,1.10
